sensor_id;sensor_type;location;lat;lon;timestamp;P1;durP1;ratioP1;P2;durP2;ratioP2
20381;SDS011;10350;51.280;12.400;2023-08-08T00:00:26;39.58;;;37.35;;
20381;SDS011;10350;51.280;12.400;2023-08-08T00:05:20;32.83;;;31.13;;
20381;SDS011;10350;51.280;12.400;2023-08-08T00:07:46;33.17;;;31.38;;
20381;SDS011;10350;51.280;12.400;2023-08-08T00:10:12;35.65;;;33.60;;
20381;SDS011;10350;51.280;12.400;2023-08-08T00:12:38;32.92;;;31.13;;
20381;SDS011;10350;51.280;12.400;2023-08-08T00:15:04;36.92;;;34.92;;
20381;SDS011;10350;51.280;12.400;2023-08-08T00:17:31;34.17;;;32.33;;
20381;SDS011;10350;51.280;12.400;2023-08-08T00:19:57;32.30;;;30.63;;
20381;SDS011;10350;51.280;12.400;2023-08-08T00:22:24;34.58;;;32.78;;
20381;SDS011;10350;51.280;12.400;2023-08-08T00:24:51;33.28;;;31.55;;
20381;SDS011;10350;51.280;12.400;2023-08-08T00:27:22;36.20;;;33.88;;
20381;SDS011;10350;51.280;12.400;2023-08-08T00:29:48;34.85;;;33.05;;
20381;SDS011;10350;51.280;12.400;2023-08-08T00:32:15;34.53;;;32.63;;
20381;SDS011;10350;51.280;12.400;2023-08-08T00:34:41;33.80;;;31.65;;
20381;SDS011;10350;51.280;12.400;2023-08-08T00:37:07;35.70;;;33.83;;
20381;SDS011;10350;51.280;12.400;2023-08-08T00:39:33;36.80;;;34.70;;
20381;SDS011;10350;51.280;12.400;2023-08-08T00:41:59;34.45;;;32.53;;
20381;SDS011;10350;51.280;12.400;2023-08-08T00:44:25;35.40;;;33.53;;
20381;SDS011;10350;51.280;12.400;2023-08-08T00:46:53;35.40;;;33.55;;
20381;SDS011;10350;51.280;12.400;2023-08-08T00:49:22;32.20;;;30.40;;
20381;SDS011;10350;51.280;12.400;2023-08-08T00:51:48;34.67;;;32.65;;
20381;SDS011;10350;51.280;12.400;2023-08-08T00:54:15;35.67;;;33.78;;
20381;SDS011;10350;51.280;12.400;2023-08-08T00:56:41;34.72;;;32.88;;
20381;SDS011;10350;51.280;12.400;2023-08-08T00:59:07;32.15;;;30.48;;
20381;SDS011;10350;51.280;12.400;2023-08-08T01:01:34;33.03;;;31.33;;
20381;SDS011;10350;51.280;12.400;2023-08-08T01:04:00;33.60;;;31.70;;
20381;SDS011;10350;51.280;12.400;2023-08-08T01:06:31;36.40;;;34.45;;
20381;SDS011;10350;51.280;12.400;2023-08-08T01:11:47;34.25;;;32.15;;
20381;SDS011;10350;51.280;12.400;2023-08-08T01:14:14;36.80;;;34.63;;
20381;SDS011;10350;51.280;12.400;2023-08-08T01:16:45;32.90;;;31.20;;
20381;SDS011;10350;51.280;12.400;2023-08-08T01:19:23;33.90;;;31.90;;
20381;SDS011;10350;51.280;12.400;2023-08-08T01:21:52;32.50;;;30.70;;
20381;SDS011;10350;51.280;12.400;2023-08-08T01:24:24;34.42;;;32.08;;
20381;SDS011;10350;51.280;12.400;2023-08-08T01:26:55;39.65;;;35.22;;
20381;SDS011;10350;51.280;12.400;2023-08-08T01:29:24;34.72;;;32.83;;
20381;SDS011;10350;51.280;12.400;2023-08-08T01:31:53;32.17;;;30.50;;
20381;SDS011;10350;51.280;12.400;2023-08-08T01:34:22;34.78;;;32.97;;
20381;SDS011;10350;51.280;12.400;2023-08-08T01:36:49;32.53;;;30.63;;
20381;SDS011;10350;51.280;12.400;2023-08-08T01:39:17;32.80;;;31.10;;
20381;SDS011;10350;51.280;12.400;2023-08-08T01:44:49;33.30;;;31.30;;
20381;SDS011;10350;51.280;12.400;2023-08-08T01:47:15;34.22;;;32.42;;
20381;SDS011;10350;51.280;12.400;2023-08-08T01:49:42;34.85;;;33.03;;
20381;SDS011;10350;51.280;12.400;2023-08-08T01:52:14;33.85;;;32.05;;
20381;SDS011;10350;51.280;12.400;2023-08-08T01:54:40;33.85;;;32.05;;
20381;SDS011;10350;51.280;12.400;2023-08-08T01:57:07;34.88;;;33.00;;
20381;SDS011;10350;51.280;12.400;2023-08-08T01:59:33;36.60;;;34.70;;
20381;SDS011;10350;51.280;12.400;2023-08-08T02:02:01;33.60;;;31.85;;
20381;SDS011;10350;51.280;12.400;2023-08-08T02:04:30;33.13;;;31.23;;
20381;SDS011;10350;51.280;12.400;2023-08-08T02:06:56;35.22;;;33.28;;
20381;SDS011;10350;51.280;12.400;2023-08-08T02:09:22;33.47;;;31.77;;
20381;SDS011;10350;51.280;12.400;2023-08-08T02:11:51;32.63;;;30.73;;
20381;SDS011;10350;51.280;12.400;2023-08-08T02:14:17;33.05;;;31.35;;
20381;SDS011;10350;51.280;12.400;2023-08-08T02:16:43;33.42;;;31.73;;
20381;SDS011;10350;51.280;12.400;2023-08-08T02:19:12;34.05;;;32.25;;
20381;SDS011;10350;51.280;12.400;2023-08-08T02:24:14;32.00;;;30.30;;
20381;SDS011;10350;51.280;12.400;2023-08-08T02:26:40;31.83;;;30.13;;
20381;SDS011;10350;51.280;12.400;2023-08-08T02:29:06;33.40;;;31.60;;
20381;SDS011;10350;51.280;12.400;2023-08-08T02:31:32;34.83;;;33.03;;
20381;SDS011;10350;51.280;12.400;2023-08-08T02:33:58;33.03;;;31.30;;
20381;SDS011;10350;51.280;12.400;2023-08-08T02:36:24;32.53;;;30.77;;
20381;SDS011;10350;51.280;12.400;2023-08-08T02:38:50;31.95;;;30.25;;
20381;SDS011;10350;51.280;12.400;2023-08-08T02:41:20;32.72;;;31.02;;
20381;SDS011;10350;51.280;12.400;2023-08-08T02:43:49;31.75;;;30.10;;
20381;SDS011;10350;51.280;12.400;2023-08-08T02:46:18;34.97;;;33.17;;
20381;SDS011;10350;51.280;12.400;2023-08-08T02:48:44;32.90;;;31.20;;
20381;SDS011;10350;51.280;12.400;2023-08-08T02:51:10;32.75;;;31.05;;
20381;SDS011;10350;51.280;12.400;2023-08-08T02:53:36;33.85;;;32.05;;
20381;SDS011;10350;51.280;12.400;2023-08-08T02:56:02;33.80;;;32.05;;
20381;SDS011;10350;51.280;12.400;2023-08-08T02:58:28;33.42;;;31.73;;
20381;SDS011;10350;51.280;12.400;2023-08-08T03:00:54;33.83;;;31.85;;
20381;SDS011;10350;51.280;12.400;2023-08-08T03:03:20;31.98;;;30.27;;
20381;SDS011;10350;51.280;12.400;2023-08-08T03:05:47;34.85;;;32.95;;
20381;SDS011;10350;51.280;12.400;2023-08-08T03:08:16;32.88;;;31.17;;
20381;SDS011;10350;51.280;12.400;2023-08-08T03:10:42;32.90;;;31.00;;
20381;SDS011;10350;51.280;12.400;2023-08-08T03:13:08;33.05;;;31.35;;
20381;SDS011;10350;51.280;12.400;2023-08-08T03:15:34;32.67;;;30.98;;
20381;SDS011;10350;51.280;12.400;2023-08-08T03:18:00;32.15;;;30.52;;
20381;SDS011;10350;51.280;12.400;2023-08-08T03:20:27;32.10;;;30.17;;
20381;SDS011;10350;51.280;12.400;2023-08-08T03:22:55;33.22;;;31.48;;
20381;SDS011;10350;51.280;12.400;2023-08-08T03:25:26;29.60;;;28.10;;
20381;SDS011;10350;51.280;12.400;2023-08-08T03:27:58;34.20;;;32.42;;
20381;SDS011;10350;51.280;12.400;2023-08-08T03:30:23;32.88;;;30.88;;
20381;SDS011;10350;51.280;12.400;2023-08-08T03:32:49;31.45;;;29.80;;
20381;SDS011;10350;51.280;12.400;2023-08-08T03:35:15;32.55;;;30.85;;
20381;SDS011;10350;51.280;12.400;2023-08-08T03:37:42;32.95;;;31.25;;
20381;SDS011;10350;51.280;12.400;2023-08-08T03:40:08;33.33;;;31.58;;
20381;SDS011;10350;51.280;12.400;2023-08-08T03:42:34;31.60;;;29.95;;
20381;SDS011;10350;51.280;12.400;2023-08-08T03:45:03;35.58;;;33.75;;
20381;SDS011;10350;51.280;12.400;2023-08-08T03:47:29;35.30;;;33.40;;
20381;SDS011;10350;51.280;12.400;2023-08-08T03:49:55;34.08;;;32.38;;
20381;SDS011;10350;51.280;12.400;2023-08-08T03:52:22;33.22;;;31.42;;
20381;SDS011;10350;51.280;12.400;2023-08-08T03:54:49;31.35;;;29.75;;
20381;SDS011;10350;51.280;12.400;2023-08-08T03:57:15;31.92;;;30.23;;
20381;SDS011;10350;51.280;12.400;2023-08-08T03:59:41;32.40;;;30.70;;
20381;SDS011;10350;51.280;12.400;2023-08-08T04:02:07;34.33;;;32.58;;
20381;SDS011;10350;51.280;12.400;2023-08-08T04:04:33;32.67;;;30.98;;
20381;SDS011;10350;51.280;12.400;2023-08-08T04:07:01;32.95;;;31.08;;
20381;SDS011;10350;51.280;12.400;2023-08-08T04:09:35;32.60;;;30.90;;
20381;SDS011;10350;51.280;12.400;2023-08-08T04:12:01;35.22;;;33.33;;
20381;SDS011;10350;51.280;12.400;2023-08-08T04:14:27;32.85;;;31.15;;
20381;SDS011;10350;51.280;12.400;2023-08-08T04:16:54;31.87;;;30.27;;
20381;SDS011;10350;51.280;12.400;2023-08-08T04:19:20;31.58;;;29.88;;
20381;SDS011;10350;51.280;12.400;2023-08-08T04:21:46;30.48;;;28.88;;
20381;SDS011;10350;51.280;12.400;2023-08-08T04:24:12;32.03;;;30.33;;
20381;SDS011;10350;51.280;12.400;2023-08-08T04:26:38;32.72;;;31.05;;
20381;SDS011;10350;51.280;12.400;2023-08-08T04:29:05;30.70;;;29.00;;
20381;SDS011;10350;51.280;12.400;2023-08-08T04:31:36;30.20;;;28.65;;
20381;SDS011;10350;51.280;12.400;2023-08-08T04:34:02;31.23;;;29.63;;
20381;SDS011;10350;51.280;12.400;2023-08-08T04:36:28;31.48;;;29.85;;
20381;SDS011;10350;51.280;12.400;2023-08-08T04:38:54;35.00;;;33.15;;
20381;SDS011;10350;51.280;12.400;2023-08-08T04:41:21;34.50;;;32.72;;
20381;SDS011;10350;51.280;12.400;2023-08-08T04:43:47;38.53;;;36.50;;
20381;SDS011;10350;51.280;12.400;2023-08-08T04:46:13;38.25;;;36.30;;
20381;SDS011;10350;51.280;12.400;2023-08-08T04:48:39;41.30;;;39.15;;
20381;SDS011;10350;51.280;12.400;2023-08-08T04:51:05;44.90;;;42.50;;
20381;SDS011;10350;51.280;12.400;2023-08-08T04:53:31;42.25;;;40.05;;
20381;SDS011;10350;51.280;12.400;2023-08-08T04:55:57;41.20;;;39.03;;
20381;SDS011;10350;51.280;12.400;2023-08-08T04:58:23;43.83;;;41.58;;
20381;SDS011;10350;51.280;12.400;2023-08-08T05:00:49;45.38;;;43.00;;
20381;SDS011;10350;51.280;12.400;2023-08-08T05:03:16;42.65;;;40.45;;
20381;SDS011;10350;51.280;12.400;2023-08-08T05:05:42;44.67;;;42.25;;
20381;SDS011;10350;51.280;12.400;2023-08-08T05:08:12;44.17;;;41.90;;
20381;SDS011;10350;51.280;12.400;2023-08-08T05:10:39;42.83;;;40.58;;
20381;SDS011;10350;51.280;12.400;2023-08-08T05:13:05;43.75;;;41.45;;
20381;SDS011;10350;51.280;12.400;2023-08-08T05:15:31;43.33;;;41.08;;
20381;SDS011;10350;51.280;12.400;2023-08-08T05:17:57;40.15;;;38.03;;
20381;SDS011;10350;51.280;12.400;2023-08-08T05:20:24;45.15;;;42.80;;
20381;SDS011;10350;51.280;12.400;2023-08-08T05:22:50;44.65;;;42.35;;
20381;SDS011;10350;51.280;12.400;2023-08-08T05:25:16;44.15;;;41.85;;
20381;SDS011;10350;51.280;12.400;2023-08-08T05:27:42;42.75;;;40.45;;
20381;SDS011;10350;51.280;12.400;2023-08-08T05:30:08;45.90;;;43.35;;
20381;SDS011;10350;51.280;12.400;2023-08-08T05:32:34;48.53;;;45.92;;
20381;SDS011;10350;51.280;12.400;2023-08-08T05:35:00;46.92;;;44.45;;
20381;SDS011;10350;51.280;12.400;2023-08-08T05:37:28;47.83;;;45.33;;
20381;SDS011;10350;51.280;12.400;2023-08-08T05:39:54;43.92;;;41.67;;
20381;SDS011;10350;51.280;12.400;2023-08-08T05:42:20;46.55;;;44.00;;
20381;SDS011;10350;51.280;12.400;2023-08-08T05:44:46;45.92;;;43.53;;
20381;SDS011;10350;51.280;12.400;2023-08-08T05:47:12;45.67;;;43.28;;
20381;SDS011;10350;51.280;12.400;2023-08-08T05:49:39;45.47;;;43.05;;
20381;SDS011;10350;51.280;12.400;2023-08-08T05:52:07;46.25;;;43.85;;
20381;SDS011;10350;51.280;12.400;2023-08-08T05:54:33;45.95;;;43.55;;
20381;SDS011;10350;51.280;12.400;2023-08-08T05:56:59;48.40;;;45.90;;
20381;SDS011;10350;51.280;12.400;2023-08-08T05:59:25;46.08;;;43.72;;
20381;SDS011;10350;51.280;12.400;2023-08-08T06:01:51;46.42;;;43.92;;
20381;SDS011;10350;51.280;12.400;2023-08-08T06:04:17;46.97;;;44.53;;
20381;SDS011;10350;51.280;12.400;2023-08-08T06:06:43;48.30;;;45.03;;
20381;SDS011;10350;51.280;12.400;2023-08-08T06:09:09;45.58;;;43.17;;
20381;SDS011;10350;51.280;12.400;2023-08-08T06:11:35;45.53;;;43.13;;
20381;SDS011;10350;51.280;12.400;2023-08-08T06:14:01;46.33;;;43.88;;
20381;SDS011;10350;51.280;12.400;2023-08-08T06:16:27;44.00;;;41.70;;
20381;SDS011;10350;51.280;12.400;2023-08-08T06:18:53;44.08;;;41.72;;
20381;SDS011;10350;51.280;12.400;2023-08-08T06:21:19;44.13;;;41.75;;
20381;SDS011;10350;51.280;12.400;2023-08-08T06:23:45;42.22;;;40.03;;
20381;SDS011;10350;51.280;12.400;2023-08-08T06:26:12;42.03;;;39.83;;
20381;SDS011;10350;51.280;12.400;2023-08-08T06:28:39;44.58;;;42.28;;
20381;SDS011;10350;51.280;12.400;2023-08-08T06:31:04;43.13;;;40.83;;
20381;SDS011;10350;51.280;12.400;2023-08-08T06:33:30;38.88;;;36.85;;
20381;SDS011;10350;51.280;12.400;2023-08-08T06:35:56;41.88;;;39.67;;
20381;SDS011;10350;51.280;12.400;2023-08-08T06:38:22;42.55;;;40.35;;
20381;SDS011;10350;51.280;12.400;2023-08-08T06:40:48;43.72;;;41.33;;
20381;SDS011;10350;51.280;12.400;2023-08-08T06:43:14;42.45;;;40.25;;
20381;SDS011;10350;51.280;12.400;2023-08-08T06:45:40;42.95;;;40.65;;
20381;SDS011;10350;51.280;12.400;2023-08-08T06:48:06;44.83;;;42.28;;
20381;SDS011;10350;51.280;12.400;2023-08-08T06:50:33;39.67;;;37.58;;
20381;SDS011;10350;51.280;12.400;2023-08-08T06:52:58;41.63;;;39.42;;
20381;SDS011;10350;51.280;12.400;2023-08-08T06:55:24;37.05;;;35.08;;
20381;SDS011;10350;51.280;12.400;2023-08-08T06:57:51;39.47;;;37.33;;
20381;SDS011;10350;51.280;12.400;2023-08-08T07:00:17;40.00;;;37.88;;
20381;SDS011;10350;51.280;12.400;2023-08-08T07:02:43;40.20;;;38.10;;
20381;SDS011;10350;51.280;12.400;2023-08-08T07:05:09;41.58;;;39.35;;
20381;SDS011;10350;51.280;12.400;2023-08-08T07:07:35;38.60;;;36.40;;
20381;SDS011;10350;51.280;12.400;2023-08-08T07:10:01;41.97;;;39.47;;
20381;SDS011;10350;51.280;12.400;2023-08-08T07:12:28;49.97;;;41.13;;
20381;SDS011;10350;51.280;12.400;2023-08-08T07:14:54;44.05;;;41.80;;
20381;SDS011;10350;51.280;12.400;2023-08-08T07:17:20;43.47;;;41.25;;
20381;SDS011;10350;51.280;12.400;2023-08-08T07:19:46;42.28;;;40.08;;
20381;SDS011;10350;51.280;12.400;2023-08-08T07:22:12;43.55;;;41.30;;
20381;SDS011;10350;51.280;12.400;2023-08-08T07:24:38;43.58;;;41.33;;
20381;SDS011;10350;51.280;12.400;2023-08-08T07:27:04;46.58;;;44.17;;
20381;SDS011;10350;51.280;12.400;2023-08-08T07:29:31;44.97;;;42.28;;
20381;SDS011;10350;51.280;12.400;2023-08-08T07:31:57;45.22;;;42.85;;
20381;SDS011;10350;51.280;12.400;2023-08-08T07:34:23;42.60;;;40.40;;
20381;SDS011;10350;51.280;12.400;2023-08-08T07:36:49;41.63;;;39.42;;
20381;SDS011;10350;51.280;12.400;2023-08-08T07:39:15;46.63;;;44.22;;
20381;SDS011;10350;51.280;12.400;2023-08-08T07:41:41;40.72;;;38.60;;
20381;SDS011;10350;51.280;12.400;2023-08-08T07:44:07;41.92;;;39.70;;
20381;SDS011;10350;51.280;12.400;2023-08-08T07:46:33;40.08;;;37.97;;
20381;SDS011;10350;51.280;12.400;2023-08-08T07:48:59;36.97;;;34.97;;
20381;SDS011;10350;51.280;12.400;2023-08-08T07:51:29;35.65;;;33.75;;
20381;SDS011;10350;51.280;12.400;2023-08-08T07:53:56;37.78;;;35.78;;
20381;SDS011;10350;51.280;12.400;2023-08-08T07:56:22;36.25;;;34.20;;
20381;SDS011;10350;51.280;12.400;2023-08-08T07:58:48;37.45;;;35.47;;
20381;SDS011;10350;51.280;12.400;2023-08-08T08:01:14;35.95;;;34.10;;
20381;SDS011;10350;51.280;12.400;2023-08-08T08:03:40;40.33;;;38.20;;
20381;SDS011;10350;51.280;12.400;2023-08-08T08:06:06;37.03;;;35.13;;
20381;SDS011;10350;51.280;12.400;2023-08-08T08:08:32;38.83;;;36.65;;
20381;SDS011;10350;51.280;12.400;2023-08-08T08:10:58;38.25;;;36.25;;
20381;SDS011;10350;51.280;12.400;2023-08-08T08:13:24;40.85;;;38.70;;
20381;SDS011;10350;51.280;12.400;2023-08-08T08:15:50;41.50;;;39.33;;
20381;SDS011;10350;51.280;12.400;2023-08-08T08:18:16;41.28;;;39.05;;
20381;SDS011;10350;51.280;12.400;2023-08-08T08:20:43;42.15;;;39.95;;
20381;SDS011;10350;51.280;12.400;2023-08-08T08:23:09;42.90;;;40.70;;
20381;SDS011;10350;51.280;12.400;2023-08-08T08:25:35;42.28;;;40.05;;
20381;SDS011;10350;51.280;12.400;2023-08-08T08:28:01;40.20;;;38.13;;
20381;SDS011;10350;51.280;12.400;2023-08-08T08:30:27;41.10;;;39.00;;
20381;SDS011;10350;51.280;12.400;2023-08-08T08:32:53;43.80;;;41.50;;
20381;SDS011;10350;51.280;12.400;2023-08-08T08:35:18;46.33;;;43.85;;
20381;SDS011;10350;51.280;12.400;2023-08-08T08:37:45;41.85;;;39.65;;
20381;SDS011;10350;51.280;12.400;2023-08-08T08:40:11;44.22;;;41.70;;
20381;SDS011;10350;51.280;12.400;2023-08-08T08:42:38;43.05;;;40.80;;
20381;SDS011;10350;51.280;12.400;2023-08-08T08:45:05;40.83;;;38.72;;
20381;SDS011;10350;51.280;12.400;2023-08-08T08:47:32;38.78;;;36.78;;
20381;SDS011;10350;51.280;12.400;2023-08-08T08:49:59;38.60;;;36.58;;
20381;SDS011;10350;51.280;12.400;2023-08-08T08:52:27;39.03;;;36.83;;
20381;SDS011;10350;51.280;12.400;2023-08-08T08:54:53;40.95;;;38.70;;
20381;SDS011;10350;51.280;12.400;2023-08-08T08:57:22;38.33;;;36.28;;
20381;SDS011;10350;51.280;12.400;2023-08-08T08:59:48;40.83;;;38.72;;
20381;SDS011;10350;51.280;12.400;2023-08-08T09:02:15;40.10;;;38.05;;
20381;SDS011;10350;51.280;12.400;2023-08-08T09:04:42;40.10;;;37.97;;
20381;SDS011;10350;51.280;12.400;2023-08-08T09:07:08;42.72;;;40.53;;
20381;SDS011;10350;51.280;12.400;2023-08-08T09:09:34;41.35;;;39.20;;
20381;SDS011;10350;51.280;12.400;2023-08-08T09:12:03;36.58;;;34.67;;
20381;SDS011;10350;51.280;12.400;2023-08-08T09:14:30;39.75;;;37.65;;
20381;SDS011;10350;51.280;12.400;2023-08-08T09:16:56;39.60;;;37.53;;
20381;SDS011;10350;51.280;12.400;2023-08-08T09:19:22;42.13;;;39.95;;
20381;SDS011;10350;51.280;12.400;2023-08-08T09:21:49;44.20;;;41.90;;
20381;SDS011;10350;51.280;12.400;2023-08-08T09:24:15;43.20;;;40.90;;
20381;SDS011;10350;51.280;12.400;2023-08-08T09:26:42;45.05;;;42.75;;
20381;SDS011;10350;51.280;12.400;2023-08-08T09:29:10;47.33;;;44.78;;
20381;SDS011;10350;51.280;12.400;2023-08-08T09:31:36;44.42;;;42.13;;
20381;SDS011;10350;51.280;12.400;2023-08-08T09:34:02;45.47;;;43.10;;
20381;SDS011;10350;51.280;12.400;2023-08-08T09:36:29;45.97;;;43.57;;
20381;SDS011;10350;51.280;12.400;2023-08-08T09:38:55;45.38;;;42.95;;
20381;SDS011;10350;51.280;12.400;2023-08-08T09:41:21;44.78;;;42.35;;
20381;SDS011;10350;51.280;12.400;2023-08-08T09:43:50;45.88;;;43.45;;
20381;SDS011;10350;51.280;12.400;2023-08-08T09:48:42;42.75;;;40.38;;
20381;SDS011;10350;51.280;12.400;2023-08-08T09:51:09;45.67;;;43.30;;
20381;SDS011;10350;51.280;12.400;2023-08-08T09:53:35;51.10;;;48.40;;
20381;SDS011;10350;51.280;12.400;2023-08-08T09:56:03;52.15;;;49.25;;
20381;SDS011;10350;51.280;12.400;2023-08-08T09:58:29;51.90;;;49.10;;
20381;SDS011;10350;51.280;12.400;2023-08-08T10:00:55;54.42;;;51.53;;
20381;SDS011;10350;51.280;12.400;2023-08-08T10:03:21;51.83;;;49.10;;
20381;SDS011;10350;51.280;12.400;2023-08-08T10:05:48;51.38;;;48.70;;
20381;SDS011;10350;51.280;12.400;2023-08-08T10:08:14;51.65;;;48.85;;
20381;SDS011;10350;51.280;12.400;2023-08-08T10:10:41;51.53;;;48.78;;
20381;SDS011;10350;51.280;12.400;2023-08-08T10:13:08;51.17;;;48.42;;
20381;SDS011;10350;51.280;12.400;2023-08-08T10:15:37;53.72;;;50.92;;
20381;SDS011;10350;51.280;12.400;2023-08-08T10:18:05;55.28;;;52.38;;
20381;SDS011;10350;51.280;12.400;2023-08-08T10:20:32;56.08;;;53.17;;
20381;SDS011;10350;51.280;12.400;2023-08-08T10:23:02;53.40;;;50.55;;
20381;SDS011;10350;51.280;12.400;2023-08-08T10:25:29;54.45;;;51.58;;
20381;SDS011;10350;51.280;12.400;2023-08-08T10:28:03;53.85;;;51.05;;
20381;SDS011;10350;51.280;12.400;2023-08-08T10:30:29;56.95;;;54.00;;
20381;SDS011;10350;51.280;12.400;2023-08-08T10:32:56;57.63;;;54.63;;
20381;SDS011;10350;51.280;12.400;2023-08-08T10:35:24;58.45;;;55.28;;
20381;SDS011;10350;51.280;12.400;2023-08-08T10:38:00;57.15;;;54.15;;
20381;SDS011;10350;51.280;12.400;2023-08-08T10:40:32;59.25;;;55.80;;
20381;SDS011;10350;51.280;12.400;2023-08-08T10:42:58;55.80;;;52.85;;
20381;SDS011;10350;51.280;12.400;2023-08-08T10:45:28;57.10;;;54.08;;
20381;SDS011;10350;51.280;12.400;2023-08-08T10:47:55;55.75;;;52.85;;
20381;SDS011;10350;51.280;12.400;2023-08-08T10:50:22;57.58;;;54.50;;
20381;SDS011;10350;51.280;12.400;2023-08-08T10:55:21;57.17;;;54.08;;
20381;SDS011;10350;51.280;12.400;2023-08-08T11:04:25;43.88;;;41.58;;
20381;SDS011;10350;51.280;12.400;2023-08-08T11:07:09;42.90;;;40.60;;
20381;SDS011;10350;51.280;12.400;2023-08-08T11:10:10;41.78;;;39.60;;
20381;SDS011;10350;51.280;12.400;2023-08-08T11:16:00;44.70;;;42.33;;
20381;SDS011;10350;51.280;12.400;2023-08-08T11:18:38;45.42;;;43.05;;
20381;SDS011;10350;51.280;12.400;2023-08-08T11:21:10;49.63;;;47.05;;
20381;SDS011;10350;51.280;12.400;2023-08-08T11:24:06;54.35;;;51.53;;
20381;SDS011;10350;51.280;12.400;2023-08-08T11:26:39;53.30;;;50.30;;
20381;SDS011;10350;51.280;12.400;2023-08-08T11:29:05;56.15;;;53.25;;
20381;SDS011;10350;51.280;12.400;2023-08-08T11:31:34;55.50;;;52.53;;
20381;SDS011;10350;51.280;12.400;2023-08-08T11:34:00;57.45;;;54.35;;
20381;SDS011;10350;51.280;12.400;2023-08-08T11:36:29;52.22;;;49.53;;
20381;SDS011;10350;51.280;12.400;2023-08-08T11:38:56;53.33;;;50.38;;
20381;SDS011;10350;51.280;12.400;2023-08-08T11:41:23;51.50;;;48.72;;
20381;SDS011;10350;51.280;12.400;2023-08-08T11:43:51;52.08;;;49.38;;
20381;SDS011;10350;51.280;12.400;2023-08-08T11:46:18;52.20;;;49.45;;
20381;SDS011;10350;51.280;12.400;2023-08-08T11:48:47;53.38;;;50.45;;
20381;SDS011;10350;51.280;12.400;2023-08-08T11:51:13;57.80;;;54.67;;
20381;SDS011;10350;51.280;12.400;2023-08-08T11:53:47;58.22;;;55.10;;
20381;SDS011;10350;51.280;12.400;2023-08-08T11:56:14;58.00;;;54.47;;
20381;SDS011;10350;51.280;12.400;2023-08-08T11:58:41;62.28;;;58.78;;
20381;SDS011;10350;51.280;12.400;2023-08-08T12:01:07;63.22;;;59.90;;
20381;SDS011;10350;51.280;12.400;2023-08-08T12:03:34;58.55;;;55.50;;
20381;SDS011;10350;51.280;12.400;2023-08-08T12:06:11;63.97;;;60.60;;
20381;SDS011;10350;51.280;12.400;2023-08-08T12:08:37;64.05;;;60.65;;
20381;SDS011;10350;51.280;12.400;2023-08-08T12:11:03;68.65;;;65.00;;
20381;SDS011;10350;51.280;12.400;2023-08-08T12:13:30;67.88;;;64.28;;
20381;SDS011;10350;51.280;12.400;2023-08-08T12:15:57;65.40;;;61.97;;
20381;SDS011;10350;51.280;12.400;2023-08-08T12:18:24;66.50;;;63.00;;
20381;SDS011;10350;51.280;12.400;2023-08-08T12:20:50;67.28;;;63.67;;
20381;SDS011;10350;51.280;12.400;2023-08-08T12:23:16;65.20;;;61.70;;
20381;SDS011;10350;51.280;12.400;2023-08-08T12:25:42;63.15;;;59.70;;
20381;SDS011;10350;51.280;12.400;2023-08-08T12:28:08;64.32;;;60.92;;
20381;SDS011;10350;51.280;12.400;2023-08-08T12:30:34;60.17;;;57.05;;
20381;SDS011;10350;51.280;12.400;2023-08-08T12:33:00;59.30;;;56.13;;
20381;SDS011;10350;51.280;12.400;2023-08-08T12:35:26;61.08;;;57.78;;
20381;SDS011;10350;51.280;12.400;2023-08-08T12:37:52;66.20;;;62.63;;
20381;SDS011;10350;51.280;12.400;2023-08-08T12:40:18;63.95;;;60.58;;
20381;SDS011;10350;51.280;12.400;2023-08-08T12:42:44;62.28;;;58.80;;
20381;SDS011;10350;51.280;12.400;2023-08-08T12:45:10;61.97;;;58.72;;
20381;SDS011;10350;51.280;12.400;2023-08-08T12:47:36;62.00;;;58.75;;
20381;SDS011;10350;51.280;12.400;2023-08-08T12:50:05;66.50;;;63.03;;
20381;SDS011;10350;51.280;12.400;2023-08-08T12:52:35;67.68;;;64.13;;
20381;SDS011;10350;51.280;12.400;2023-08-08T12:55:01;65.10;;;61.67;;
20381;SDS011;10350;51.280;12.400;2023-08-08T12:57:28;67.10;;;63.55;;
20381;SDS011;10350;51.280;12.400;2023-08-08T12:59:54;65.10;;;61.67;;
20381;SDS011;10350;51.280;12.400;2023-08-08T13:05:19;63.03;;;59.70;;
20381;SDS011;10350;51.280;12.400;2023-08-08T13:07:45;66.30;;;62.72;;
20381;SDS011;10350;51.280;12.400;2023-08-08T13:10:11;68.07;;;64.50;;
20381;SDS011;10350;51.280;12.400;2023-08-08T13:12:37;62.83;;;59.53;;
20381;SDS011;10350;51.280;12.400;2023-08-08T13:15:03;64.85;;;61.47;;
20381;SDS011;10350;51.280;12.400;2023-08-08T13:17:30;66.28;;;62.80;;
20381;SDS011;10350;51.280;12.400;2023-08-08T13:19:56;65.78;;;62.35;;
20381;SDS011;10350;51.280;12.400;2023-08-08T13:22:22;65.30;;;61.85;;
20381;SDS011;10350;51.280;12.400;2023-08-08T13:24:48;66.38;;;62.83;;
20381;SDS011;10350;51.280;12.400;2023-08-08T13:27:14;67.38;;;63.78;;
20381;SDS011;10350;51.280;12.400;2023-08-08T13:29:40;68.82;;;65.18;;
20381;SDS011;10350;51.280;12.400;2023-08-08T13:32:07;61.10;;;57.90;;
20381;SDS011;10350;51.280;12.400;2023-08-08T13:34:33;77.20;;;73.15;;
20381;SDS011;10350;51.280;12.400;2023-08-08T13:36:59;61.70;;;58.47;;
20381;SDS011;10350;51.280;12.400;2023-08-08T13:39:25;65.32;;;61.58;;
20381;SDS011;10350;51.280;12.400;2023-08-08T13:41:51;70.38;;;66.65;;
20381;SDS011;10350;51.280;12.400;2023-08-08T13:44:17;67.53;;;63.92;;
20381;SDS011;10350;51.280;12.400;2023-08-08T13:46:43;68.38;;;64.60;;
20381;SDS011;10350;51.280;12.400;2023-08-08T13:49:09;68.57;;;64.90;;
20381;SDS011;10350;51.280;12.400;2023-08-08T13:51:35;71.45;;;67.65;;
20381;SDS011;10350;51.280;12.400;2023-08-08T13:54:01;71.22;;;67.45;;
20381;SDS011;10350;51.280;12.400;2023-08-08T13:56:27;69.53;;;65.82;;
20381;SDS011;10350;51.280;12.400;2023-08-08T13:58:53;71.40;;;67.63;;
20381;SDS011;10350;51.280;12.400;2023-08-08T14:01:19;73.93;;;70.00;;
20381;SDS011;10350;51.280;12.400;2023-08-08T14:03:45;74.18;;;70.22;;
20381;SDS011;10350;51.280;12.400;2023-08-08T14:06:11;73.07;;;69.22;;
20381;SDS011;10350;51.280;12.400;2023-08-08T14:08:37;70.85;;;67.05;;
20381;SDS011;10350;51.280;12.400;2023-08-08T14:11:03;67.68;;;64.13;;
20381;SDS011;10350;51.280;12.400;2023-08-08T14:13:29;71.72;;;67.95;;
20381;SDS011;10350;51.280;12.400;2023-08-08T14:15:55;70.22;;;66.55;;
20381;SDS011;10350;51.280;12.400;2023-08-08T14:18:21;75.35;;;70.78;;
20381;SDS011;10350;51.280;12.400;2023-08-08T14:20:47;72.75;;;68.88;;
20381;SDS011;10350;51.280;12.400;2023-08-08T14:23:13;75.10;;;71.07;;
20381;SDS011;10350;51.280;12.400;2023-08-08T14:25:39;66.80;;;63.22;;
20381;SDS011;10350;51.280;12.400;2023-08-08T14:28:05;71.45;;;67.47;;
20381;SDS011;10350;51.280;12.400;2023-08-08T14:30:31;71.97;;;68.18;;
20381;SDS011;10350;51.280;12.400;2023-08-08T14:32:57;73.70;;;69.80;;
20381;SDS011;10350;51.280;12.400;2023-08-08T14:35:24;69.32;;;65.60;;